Terminal Aerodrome Forecast
Issued by NWS

Home | Current Version | Previous Version | Text Only | Print | Product List | Glossary On
Versions: 1 2 3 4 5 6 7 8 9 10 11 12
000
FTUS44 KOUN 191739
TAFHBR
TAF
KHBR 191739Z 1918/2018 19018G28KT P6SM BKN250
     FM200100 17014KT P6SM BKN120 OVC250
     FM201200 18014KT P6SM BKN035 OVC100 PROB30 2012/2018 -SHRA=

USA.gov is the U.S. government's official web portal to all federal, state and local government web resources and services.